sensor_id;sensor_type;location;lat;lon;timestamp;pressure;altitude;pressure_sealevel;temperature;humidity
40205;BME280;26963;42.666;23.366;2022-09-21T00:01:21;95095.72;;;11.75;52.11
40205;BME280;26963;42.666;23.366;2022-09-21T00:03:53;95048.41;;;11.37;52.08
40205;BME280;26963;42.666;23.366;2022-09-21T00:06:20;95103.16;;;11.64;52.08
40205;BME280;26963;42.666;23.366;2022-09-21T00:08:49;95098.22;;;11.38;52.58
40205;BME280;26963;42.666;23.366;2022-09-21T00:11:18;95117.59;;;11.16;53.37
40205;BME280;26963;42.666;23.366;2022-09-21T00:13:44;95104.38;;;10.87;55.16
40205;BME280;26963;42.666;23.366;2022-09-21T00:16:14;95101.28;;;10.55;55.25
40205;BME280;26963;42.666;23.366;2022-09-21T00:18:40;95106.72;;;10.50;55.81
40205;BME280;26963;42.666;23.366;2022-09-21T00:21:13;95085.44;;;10.35;56.01
40205;BME280;26963;42.666;23.366;2022-09-21T00:23:39;95088.13;;;10.35;56.06
40205;BME280;26963;42.666;23.366;2022-09-21T00:26:17;95037.31;;;9.91;56.54
40205;BME280;26963;42.666;23.366;2022-09-21T00:28:46;95114.22;;;10.48;56.27
40205;BME280;26963;42.666;23.366;2022-09-21T00:31:15;95075.75;;;10.44;56.17
40205;BME280;26963;42.666;23.366;2022-09-21T00:33:58;95094.66;;;10.72;55.58
40205;BME280;26963;42.666;23.366;2022-09-21T00:36:25;95098.03;;;10.77;55.37
40205;BME280;26963;42.666;23.366;2022-09-21T00:38:58;95032.38;;;10.47;55.29
40205;BME280;26963;42.666;23.366;2022-09-21T00:41:30;95093.84;;;10.90;54.98
40205;BME280;26963;42.666;23.366;2022-09-21T00:46:44;95087.84;;;10.80;55.18
40205;BME280;26963;42.666;23.366;2022-09-21T00:49:13;95038.81;;;10.65;54.63
40205;BME280;26963;42.666;23.366;2022-09-21T00:51:40;95086.84;;;10.95;54.47
40205;BME280;26963;42.666;23.366;2022-09-21T00:54:10;95092.19;;;10.95;54.80
40205;BME280;26963;42.666;23.366;2022-09-21T00:56:40;95031.81;;;10.50;54.72
40205;BME280;26963;42.666;23.366;2022-09-21T00:59:08;95047.72;;;10.60;54.66
40205;BME280;26963;42.666;23.366;2022-09-21T01:01:35;95067.38;;;10.70;55.06
40205;BME280;26963;42.666;23.366;2022-09-21T01:04:02;95046.50;;;10.53;54.96
40205;BME280;26963;42.666;23.366;2022-09-21T01:06:32;95044.59;;;10.53;55.04
40205;BME280;26963;42.666;23.366;2022-09-21T01:08:59;95071.34;;;10.72;55.19
40205;BME280;26963;42.666;23.366;2022-09-21T01:17:09;95084.16;;;10.95;54.72
40205;BME280;26963;42.666;23.366;2022-09-21T01:19:51;95087.00;;;11.03;54.43
40205;BME280;26963;42.666;23.366;2022-09-21T01:31:03;95077.94;;;10.80;55.18
40205;BME280;26963;42.666;23.366;2022-09-21T01:33:51;95003.03;;;10.42;55.50
40205;BME280;26963;42.666;23.366;2022-09-21T01:36:36;95067.06;;;10.90;55.52
40205;BME280;26963;42.666;23.366;2022-09-21T01:39:09;95049.31;;;10.81;55.22
40205;BME280;26963;42.666;23.366;2022-09-21T01:41:37;95068.22;;;10.84;55.81
40205;BME280;26963;42.666;23.366;2022-09-21T01:44:12;95068.31;;;10.79;55.77
40205;BME280;26963;42.666;23.366;2022-09-21T01:46:40;95065.22;;;10.72;55.83
40205;BME280;26963;42.666;23.366;2022-09-21T01:49:20;95019.06;;;10.42;55.81
40205;BME280;26963;42.666;23.366;2022-09-21T01:51:52;95025.59;;;10.31;56.23
40205;BME280;26963;42.666;23.366;2022-09-21T01:54:32;95060.00;;;10.62;55.86
40205;BME280;26963;42.666;23.366;2022-09-21T01:57:01;95073.75;;;10.74;55.79
40205;BME280;26963;42.666;23.366;2022-09-21T02:00:06;95010.63;;;10.29;55.84
40205;BME280;26963;42.666;23.366;2022-09-21T02:05:48;95009.06;;;10.28;56.26
40205;BME280;26963;42.666;23.366;2022-09-21T02:08:17;95071.94;;;10.69;56.01
40205;BME280;26963;42.666;23.366;2022-09-21T02:10:49;95053.28;;;10.64;55.75
40205;BME280;26963;42.666;23.366;2022-09-21T02:13:23;95040.09;;;10.49;55.66
40205;BME280;26963;42.666;23.366;2022-09-21T02:18:39;95085.88;;;10.85;55.49
40205;BME280;26963;42.666;23.366;2022-09-21T02:21:21;95023.50;;;10.52;55.32
40205;BME280;26963;42.666;23.366;2022-09-21T02:24:07;95079.47;;;10.86;55.48
40205;BME280;26963;42.666;23.366;2022-09-21T02:26:42;95004.69;;;10.38;55.59
40205;BME280;26963;42.666;23.366;2022-09-21T02:29:26;95089.78;;;10.74;55.58
40205;BME280;26963;42.666;23.366;2022-09-21T02:32:11;95058.97;;;10.57;55.59
40205;BME280;26963;42.666;23.366;2022-09-21T02:34:48;95081.50;;;10.75;55.52
40205;BME280;26963;42.666;23.366;2022-09-21T02:42:53;94974.34;;;10.04;55.64
40205;BME280;26963;42.666;23.366;2022-09-21T02:45:25;95086.84;;;10.75;55.58
40205;BME280;26963;42.666;23.366;2022-09-21T02:47:57;95087.19;;;10.69;56.29
40205;BME280;26963;42.666;23.366;2022-09-21T02:50:51;95074.03;;;10.53;56.19
40205;BME280;26963;42.666;23.366;2022-09-21T02:53:24;95087.91;;;10.55;56.30
40205;BME280;26963;42.666;23.366;2022-09-21T02:55:52;95053.00;;;10.22;56.56
40205;BME280;26963;42.666;23.366;2022-09-21T02:58:26;95071.88;;;10.31;56.96
40205;BME280;26963;42.666;23.366;2022-09-21T03:00:57;95087.41;;;10.53;56.48
40205;BME280;26963;42.666;23.366;2022-09-21T03:03:26;95024.34;;;10.04;56.31
40205;BME280;26963;42.666;23.366;2022-09-21T03:05:54;95074.59;;;10.26;56.38
40205;BME280;26963;42.666;23.366;2022-09-21T03:08:23;95089.75;;;10.36;56.48
40205;BME280;26963;42.666;23.366;2022-09-21T03:10:54;95086.88;;;10.27;56.42
40205;BME280;26963;42.666;23.366;2022-09-21T03:13:20;95058.88;;;10.00;56.89
40205;BME280;26963;42.666;23.366;2022-09-21T03:15:47;95010.81;;;9.71;56.59
40205;BME280;26963;42.666;23.366;2022-09-21T03:18:13;95082.41;;;10.22;56.46
40205;BME280;26963;42.666;23.366;2022-09-21T03:20:46;95067.34;;;10.07;56.68
40205;BME280;26963;42.666;23.366;2022-09-21T03:23:12;95065.50;;;10.03;56.83
40205;BME280;26963;42.666;23.366;2022-09-21T03:25:44;95031.25;;;9.86;56.52
40205;BME280;26963;42.666;23.366;2022-09-21T03:28:13;95094.75;;;10.18;56.71
40205;BME280;26963;42.666;23.366;2022-09-21T03:30:40;95071.94;;;10.02;56.73
40205;BME280;26963;42.666;23.366;2022-09-21T03:33:23;95090.66;;;10.02;56.58
40205;BME280;26963;42.666;23.366;2022-09-21T03:35:52;95079.56;;;9.89;56.89
40205;BME280;26963;42.666;23.366;2022-09-21T03:38:19;95081.09;;;9.95;56.90
40205;BME280;26963;42.666;23.366;2022-09-21T03:40:49;95072.69;;;9.83;57.06
40205;BME280;26963;42.666;23.366;2022-09-21T03:43:17;95072.56;;;9.93;56.92
40205;BME280;26963;42.666;23.366;2022-09-21T03:45:43;94917.34;;;8.93;56.49
40205;BME280;26963;42.666;23.366;2022-09-21T03:48:12;95073.59;;;9.98;56.46
40205;BME280;26963;42.666;23.366;2022-09-21T03:50:40;95085.41;;;9.91;56.38
40205;BME280;26963;42.666;23.366;2022-09-21T03:53:06;95038.97;;;9.34;56.95
40205;BME280;26963;42.666;23.366;2022-09-21T03:55:35;95097.06;;;9.47;57.73
40205;BME280;26963;42.666;23.366;2022-09-21T03:58:01;95036.59;;;8.97;58.21
40205;BME280;26963;42.666;23.366;2022-09-21T04:00:27;94931.75;;;8.23;58.23
40205;BME280;26963;42.666;23.366;2022-09-21T04:02:53;95051.81;;;8.97;58.78
40205;BME280;26963;42.666;23.366;2022-09-21T04:05:19;95038.53;;;8.92;58.38
40205;BME280;26963;42.666;23.366;2022-09-21T04:07:45;95074.84;;;9.22;58.34
40205;BME280;26963;42.666;23.366;2022-09-21T04:10:13;95080.66;;;9.29;57.96
40205;BME280;26963;42.666;23.366;2022-09-21T04:12:45;95100.91;;;9.36;58.50
40205;BME280;26963;42.666;23.366;2022-09-21T04:15:11;95109.97;;;9.35;58.34
40205;BME280;26963;42.666;23.366;2022-09-21T04:17:37;95075.63;;;9.23;58.26
40205;BME280;26963;42.666;23.366;2022-09-21T04:20:04;95041.84;;;9.08;57.90
40205;BME280;26963;42.666;23.366;2022-09-21T04:22:30;95101.19;;;9.63;57.41
40205;BME280;26963;42.666;23.366;2022-09-21T04:24:58;95085.69;;;9.66;57.57
40205;BME280;26963;42.666;23.366;2022-09-21T04:27:23;95097.00;;;9.82;57.53
40205;BME280;26963;42.666;23.366;2022-09-21T04:29:49;95064.25;;;9.71;56.94
40205;BME280;26963;42.666;23.366;2022-09-21T04:32:30;95096.69;;;9.88;56.83
40205;BME280;26963;42.666;23.366;2022-09-21T04:34:55;95098.28;;;9.89;56.94
40205;BME280;26963;42.666;23.366;2022-09-21T04:37:21;95099.78;;;10.01;56.45
40205;BME280;26963;42.666;23.366;2022-09-21T04:39:46;95102.38;;;10.06;56.41
40205;BME280;26963;42.666;23.366;2022-09-21T04:42:12;95088.44;;;10.09;57.71
40205;BME280;26963;42.666;23.366;2022-09-21T04:44:38;95100.00;;;10.28;58.77
40205;BME280;26963;42.666;23.366;2022-09-21T04:47:06;95104.09;;;10.45;57.76
40205;BME280;26963;42.666;23.366;2022-09-21T04:49:31;95114.16;;;10.53;58.30
40205;BME280;26963;42.666;23.366;2022-09-21T04:52:00;95101.72;;;10.63;57.72
40205;BME280;26963;42.666;23.366;2022-09-21T04:54:26;95095.28;;;10.64;56.95
40205;BME280;26963;42.666;23.366;2022-09-21T04:56:51;95062.38;;;10.44;56.27
40205;BME280;26963;42.666;23.366;2022-09-21T04:59:17;95043.13;;;10.42;56.97
40205;BME280;26963;42.666;23.366;2022-09-21T05:01:42;95064.56;;;10.61;56.04
40205;BME280;26963;42.666;23.366;2022-09-21T05:04:08;95122.00;;;11.07;55.03
40205;BME280;26963;42.666;23.366;2022-09-21T05:06:33;95117.66;;;10.92;54.95
40205;BME280;26963;42.666;23.366;2022-09-21T05:08:59;95111.47;;;10.53;55.71
40205;BME280;26963;42.666;23.366;2022-09-21T05:11:44;95098.56;;;10.12;56.67
40205;BME280;26963;42.666;23.366;2022-09-21T05:14:15;95103.63;;;9.89;57.58
40205;BME280;26963;42.666;23.366;2022-09-21T05:16:53;95058.06;;;9.46;57.68
40205;BME280;26963;42.666;23.366;2022-09-21T05:19:21;95105.47;;;9.65;58.53
40205;BME280;26963;42.666;23.366;2022-09-21T05:21:55;95106.47;;;9.69;58.61
40205;BME280;26963;42.666;23.366;2022-09-21T05:24:24;95050.78;;;9.27;59.04
40205;BME280;26963;42.666;23.366;2022-09-21T05:26:49;95102.22;;;9.68;58.70
40205;BME280;26963;42.666;23.366;2022-09-21T05:29:15;95053.22;;;9.53;58.14
40205;BME280;26963;42.666;23.366;2022-09-21T05:31:50;95120.47;;;10.14;57.51
40205;BME280;26963;42.666;23.366;2022-09-21T05:35:12;95118.66;;;10.34;57.12
40205;BME280;26963;42.666;23.366;2022-09-21T05:40:09;95097.81;;;10.31;56.41
40205;BME280;26963;42.666;23.366;2022-09-21T05:42:35;95117.84;;;10.57;55.95
40205;BME280;26963;42.666;23.366;2022-09-21T05:45:01;95105.84;;;10.55;55.84
40205;BME280;26963;42.666;23.366;2022-09-21T05:55:55;95099.78;;;10.87;55.20
40205;BME280;26963;42.666;23.366;2022-09-21T05:58:50;95113.75;;;11.03;55.31
40205;BME280;26963;42.666;23.366;2022-09-21T06:03:58;95087.91;;;11.13;54.47
40205;BME280;26963;42.666;23.366;2022-09-21T06:06:23;95114.66;;;11.32;54.18
40205;BME280;26963;42.666;23.366;2022-09-21T06:08:52;95109.66;;;11.44;54.00
40205;BME280;26963;42.666;23.366;2022-09-21T06:11:21;95116.31;;;11.47;54.01
40205;BME280;26963;42.666;23.366;2022-09-21T06:13:46;95057.84;;;11.16;53.88
40205;BME280;26963;42.666;23.366;2022-09-21T06:16:14;95125.19;;;11.61;54.11
40205;BME280;26963;42.666;23.366;2022-09-21T06:18:40;95064.38;;;11.29;53.43
40205;BME280;26963;42.666;23.366;2022-09-21T06:21:07;95064.78;;;11.36;53.67
40205;BME280;26963;42.666;23.366;2022-09-21T06:23:33;95110.03;;;11.84;53.64
40205;BME280;26963;42.666;23.366;2022-09-21T06:26:02;95123.03;;;12.10;52.58
40205;BME280;26963;42.666;23.366;2022-09-21T06:28:28;95125.81;;;12.33;52.20
40205;BME280;26963;42.666;23.366;2022-09-21T06:30:55;95072.75;;;12.30;51.54
40205;BME280;26963;42.666;23.366;2022-09-21T06:33:34;95131.41;;;13.24;49.76
40205;BME280;26963;42.666;23.366;2022-09-21T06:36:05;95119.97;;;13.77;48.38
40205;BME280;26963;42.666;23.366;2022-09-21T06:38:34;95118.66;;;13.97;47.52
40205;BME280;26963;42.666;23.366;2022-09-21T06:41:02;95137.28;;;14.16;47.36
40205;BME280;26963;42.666;23.366;2022-09-21T06:43:28;95065.44;;;13.85;47.15
40205;BME280;26963;42.666;23.366;2022-09-21T06:45:59;95042.91;;;14.04;46.99
40205;BME280;26963;42.666;23.366;2022-09-21T06:48:29;95119.47;;;14.96;46.60
40205;BME280;26963;42.666;23.366;2022-09-21T06:51:03;95130.09;;;15.54;45.69
40205;BME280;26963;42.666;23.366;2022-09-21T06:53:31;95117.31;;;16.16;43.96
40205;BME280;26963;42.666;23.366;2022-09-21T06:56:05;95079.38;;;16.72;42.55
40205;BME280;26963;42.666;23.366;2022-09-21T06:58:31;95083.88;;;17.52;40.33
40205;BME280;26963;42.666;23.366;2022-09-21T07:01:09;95124.63;;;18.60;38.93
40205;BME280;26963;42.666;23.366;2022-09-21T07:03:36;95128.78;;;19.48;37.47
40205;BME280;26963;42.666;23.366;2022-09-21T07:06:02;95114.81;;;20.34;36.40
40205;BME280;26963;42.666;23.366;2022-09-21T07:08:28;95078.16;;;20.60;34.59
40205;BME280;26963;42.666;23.366;2022-09-21T07:10:57;95121.34;;;20.97;34.29
40205;BME280;26963;42.666;23.366;2022-09-21T07:13:23;95125.88;;;21.45;33.25
40205;BME280;26963;42.666;23.366;2022-09-21T07:15:49;95114.31;;;20.96;33.34
40205;BME280;26963;42.666;23.366;2022-09-21T07:18:21;95122.47;;;20.96;33.93
40205;BME280;26963;42.666;23.366;2022-09-21T07:20:47;95116.34;;;20.99;33.65
40205;BME280;26963;42.666;23.366;2022-09-21T07:23:15;95131.31;;;20.74;33.87
40205;BME280;26963;42.666;23.366;2022-09-21T07:25:42;95117.59;;;20.54;34.19
40205;BME280;26963;42.666;23.366;2022-09-21T07:28:09;95075.88;;;20.30;34.36
40205;BME280;26963;42.666;23.366;2022-09-21T07:30:36;95100.34;;;20.30;34.24
40205;BME280;26963;42.666;23.366;2022-09-21T07:33:20;95110.22;;;19.91;35.20
40205;BME280;26963;42.666;23.366;2022-09-21T07:35:55;95134.13;;;19.72;35.53
40205;BME280;26963;42.666;23.366;2022-09-21T07:38:24;95093.25;;;19.25;36.11
40205;BME280;26963;42.666;23.366;2022-09-21T07:41:11;95127.81;;;19.28;36.82
40205;BME280;26963;42.666;23.366;2022-09-21T07:43:37;95121.00;;;19.05;36.89
40205;BME280;26963;42.666;23.366;2022-09-21T07:46:11;95082.84;;;18.49;37.70
40205;BME280;26963;42.666;23.366;2022-09-21T07:48:37;95117.72;;;18.63;38.19
40205;BME280;26963;42.666;23.366;2022-09-21T07:51:05;95131.81;;;18.68;37.83
40205;BME280;26963;42.666;23.366;2022-09-21T07:53:35;95068.63;;;18.27;38.34
40205;BME280;26963;42.666;23.366;2022-09-21T07:56:06;95076.75;;;18.39;38.10
40205;BME280;26963;42.666;23.366;2022-09-21T07:58:35;95116.69;;;18.80;38.19
40205;BME280;26963;42.666;23.366;2022-09-21T08:01:19;95130.25;;;18.92;37.72
40205;BME280;26963;42.666;23.366;2022-09-21T08:03:50;95115.78;;;18.88;37.93
40205;BME280;26963;42.666;23.366;2022-09-21T08:06:17;95123.72;;;19.05;37.81
40205;BME280;26963;42.666;23.366;2022-09-21T08:08:44;95112.38;;;19.16;37.50
40205;BME280;26963;42.666;23.366;2022-09-21T08:11:13;95117.31;;;19.26;37.36
40205;BME280;26963;42.666;23.366;2022-09-21T08:13:41;95077.78;;;19.13;36.71
40205;BME280;26963;42.666;23.366;2022-09-21T08:16:10;95131.91;;;19.62;35.89
40205;BME280;26963;42.666;23.366;2022-09-21T08:18:37;95084.13;;;19.45;35.65
40205;BME280;26963;42.666;23.366;2022-09-21T08:21:03;95131.41;;;19.72;35.77
40205;BME280;26963;42.666;23.366;2022-09-21T08:23:29;95063.47;;;19.40;36.06
40205;BME280;26963;42.666;23.366;2022-09-21T08:26:02;95122.63;;;19.63;36.29
40205;BME280;26963;42.666;23.366;2022-09-21T08:28:31;95089.72;;;19.36;36.09
40205;BME280;26963;42.666;23.366;2022-09-21T08:30:59;95118.72;;;19.89;35.61
40205;BME280;26963;42.666;23.366;2022-09-21T08:33:43;95090.09;;;19.79;35.39
40205;BME280;26963;42.666;23.366;2022-09-21T08:36:09;95117.41;;;20.15;35.15
40205;BME280;26963;42.666;23.366;2022-09-21T08:38:37;95111.81;;;20.24;35.00
40205;BME280;26963;42.666;23.366;2022-09-21T08:46:35;95098.31;;;20.59;33.46
40205;BME280;26963;42.666;23.366;2022-09-21T08:51:35;95094.19;;;20.49;33.07
40205;BME280;26963;42.666;23.366;2022-09-21T08:54:18;95027.28;;;20.09;33.00
40205;BME280;26963;42.666;23.366;2022-09-21T08:56:45;95102.88;;;20.55;32.75
40205;BME280;26963;42.666;23.366;2022-09-21T08:59:14;95084.47;;;20.48;32.82
40205;BME280;26963;42.666;23.366;2022-09-21T09:04:51;95068.41;;;20.59;32.90
40205;BME280;26963;42.666;23.366;2022-09-21T09:10:35;95091.16;;;21.02;31.86
40205;BME280;26963;42.666;23.366;2022-09-21T09:13:17;95074.91;;;21.06;32.39
40205;BME280;26963;42.666;23.366;2022-09-21T09:16:24;95071.22;;;21.14;32.39
40205;BME280;26963;42.666;23.366;2022-09-21T09:18:51;95073.19;;;20.98;31.83
40205;BME280;26963;42.666;23.366;2022-09-21T09:21:24;95070.47;;;20.98;31.97
40205;BME280;26963;42.666;23.366;2022-09-21T09:26:56;95071.22;;;20.79;31.74
40205;BME280;26963;42.666;23.366;2022-09-21T09:33:01;95062.84;;;20.36;32.94
40205;BME280;26963;42.666;23.366;2022-09-21T09:35:47;95006.09;;;19.70;33.26
40205;BME280;26963;42.666;23.366;2022-09-21T09:38:27;95065.72;;;19.95;33.21
40205;BME280;26963;42.666;23.366;2022-09-21T09:44:10;95058.22;;;19.76;33.95
40205;BME280;26963;42.666;23.366;2022-09-21T09:47:10;95051.22;;;19.75;33.86
40205;BME280;26963;42.666;23.366;2022-09-21T09:50:05;95037.59;;;19.59;33.72
40205;BME280;26963;42.666;23.366;2022-09-21T09:52:32;95041.56;;;19.62;33.58
40205;BME280;26963;42.666;23.366;2022-09-21T09:54:59;95037.97;;;19.58;33.61
40205;BME280;26963;42.666;23.366;2022-09-21T09:57:30;95044.09;;;19.70;33.50
40205;BME280;26963;42.666;23.366;2022-09-21T10:00:05;95000.59;;;19.67;33.37
40205;BME280;26963;42.666;23.366;2022-09-21T10:02:51;95006.75;;;19.96;32.75
40205;BME280;26963;42.666;23.366;2022-09-21T10:05:38;94986.63;;;19.97;32.47
40205;BME280;26963;42.666;23.366;2022-09-21T10:10:51;95014.44;;;20.42;32.05
40205;BME280;26963;42.666;23.366;2022-09-21T10:13:27;95025.97;;;20.54;32.22
40205;BME280;26963;42.666;23.366;2022-09-21T10:16:03;94992.69;;;20.42;31.99
40205;BME280;26963;42.666;23.366;2022-09-21T10:18:51;95022.91;;;20.72;31.79
40205;BME280;26963;42.666;23.366;2022-09-21T10:21:25;94978.69;;;20.40;31.05
40205;BME280;26963;42.666;23.366;2022-09-21T10:24:05;95026.22;;;20.65;31.09
40205;BME280;26963;42.666;23.366;2022-09-21T10:26:37;94965.13;;;20.24;31.17
40205;BME280;26963;42.666;23.366;2022-09-21T10:32:26;95008.59;;;20.40;31.44
40205;BME280;26963;42.666;23.366;2022-09-21T10:35:13;95012.75;;;20.53;31.29
40205;BME280;26963;42.666;23.366;2022-09-21T10:37:46;94920.66;;;19.96;31.17
40205;BME280;26963;42.666;23.366;2022-09-21T10:42:48;94996.59;;;20.60;31.07
40205;BME280;26963;42.666;23.366;2022-09-21T10:55:41;94939.13;;;20.97;28.79
40205;BME280;26963;42.666;23.366;2022-09-21T10:58:09;94969.81;;;21.17;28.34
40205;BME280;26963;42.666;23.366;2022-09-21T11:00:44;94936.41;;;20.97;28.54
40205;BME280;26963;42.666;23.366;2022-09-21T11:03:34;94984.78;;;21.27;28.72
40205;BME280;26963;42.666;23.366;2022-09-21T11:06:23;94932.69;;;20.86;29.82
40205;BME280;26963;42.666;23.366;2022-09-21T11:08:56;94985.50;;;21.24;29.56
40205;BME280;26963;42.666;23.366;2022-09-21T11:16:58;94933.84;;;20.85;29.62
40205;BME280;26963;42.666;23.366;2022-09-21T11:19:38;94974.16;;;21.42;28.84
40205;BME280;26963;42.666;23.366;2022-09-21T11:22:14;94973.72;;;21.59;28.89
40205;BME280;26963;42.666;23.366;2022-09-21T11:24:56;94966.00;;;21.61;27.49
40205;BME280;26963;42.666;23.366;2022-09-21T11:27:32;94922.56;;;21.26;28.31
40205;BME280;26963;42.666;23.366;2022-09-21T11:30:13;94982.03;;;21.47;27.70
40205;BME280;26963;42.666;23.366;2022-09-21T11:41:23;94971.13;;;20.49;29.19
40205;BME280;26963;42.666;23.366;2022-09-21T11:44:15;94973.56;;;20.54;29.22
40205;BME280;26963;42.666;23.366;2022-09-21T12:01:15;95000.44;;;19.31;34.38
40205;BME280;26963;42.666;23.366;2022-09-21T12:06:22;95001.06;;;18.71;35.30
40205;BME280;26963;42.666;23.366;2022-09-21T12:08:59;95012.22;;;18.29;36.87
40205;BME280;26963;42.666;23.366;2022-09-21T12:22:04;94994.63;;;17.19;39.13
40205;BME280;26963;42.666;23.366;2022-09-21T12:24:36;95003.16;;;17.08;39.29
40205;BME280;26963;42.666;23.366;2022-09-21T12:27:57;95019.97;;;16.93;40.53
40205;BME280;26963;42.666;23.366;2022-09-21T12:30:18;95016.25;;;16.76;40.56
40205;BME280;26963;42.666;23.366;2022-09-21T12:35:26;95013.22;;;16.78;40.35
40205;BME280;26963;42.666;23.366;2022-09-21T12:38:02;94993.38;;;16.53;41.01
40205;BME280;26963;42.666;23.366;2022-09-21T12:43:34;95016.38;;;16.59;41.02
40205;BME280;26963;42.666;23.366;2022-09-21T12:46:07;95009.16;;;16.21;41.42
40205;BME280;26963;42.666;23.366;2022-09-21T12:48:38;94932.56;;;15.65;42.03
40205;BME280;26963;42.666;23.366;2022-09-21T12:53:38;94971.81;;;15.93;41.61
40205;BME280;26963;42.666;23.366;2022-09-21T12:58:46;95009.63;;;15.75;41.83
40205;BME280;26963;42.666;23.366;2022-09-21T13:03:48;95016.63;;;15.76;42.20
40205;BME280;26963;42.666;23.366;2022-09-21T13:08:51;95000.84;;;15.96;41.42
40205;BME280;26963;42.666;23.366;2022-09-21T13:11:19;94999.19;;;16.12;41.17
40205;BME280;26963;42.666;23.366;2022-09-21T13:13:51;94904.38;;;15.54;41.34
40205;BME280;26963;42.666;23.366;2022-09-21T13:16:32;94998.25;;;16.08;41.33
40205;BME280;26963;42.666;23.366;2022-09-21T13:19:00;94952.69;;;15.68;41.48
40205;BME280;26963;42.666;23.366;2022-09-21T13:21:29;94972.97;;;15.74;41.58
40205;BME280;26963;42.666;23.366;2022-09-21T13:26:50;94997.41;;;15.87;40.79
40205;BME280;26963;42.666;23.366;2022-09-21T13:38:24;94995.22;;;16.10;40.17
40205;BME280;26963;42.666;23.366;2022-09-21T13:51:33;94976.44;;;16.86;36.96
40205;BME280;26963;42.666;23.366;2022-09-21T13:54:02;94930.94;;;16.54;37.12
40205;BME280;26963;42.666;23.366;2022-09-21T13:56:31;94963.81;;;16.77;37.42
40205;BME280;26963;42.666;23.366;2022-09-21T13:58:58;94918.09;;;16.30;36.33
40205;BME280;26963;42.666;23.366;2022-09-21T14:01:31;94867.78;;;15.74;36.95
40205;BME280;26963;42.666;23.366;2022-09-21T14:04:35;94974.59;;;16.35;37.57
40205;BME280;26963;42.666;23.366;2022-09-21T14:07:05;94952.47;;;16.21;36.87
40205;BME280;26963;42.666;23.366;2022-09-21T14:09:58;94974.97;;;16.25;37.21
40205;BME280;26963;42.666;23.366;2022-09-21T14:12:47;94957.78;;;16.08;37.23
40205;BME280;26963;42.666;23.366;2022-09-21T14:18:17;94969.31;;;16.18;36.69
40205;BME280;26963;42.666;23.366;2022-09-21T14:23:31;94944.66;;;15.98;37.35
40205;BME280;26963;42.666;23.366;2022-09-21T14:25:58;94916.31;;;15.83;37.36
40205;BME280;26963;42.666;23.366;2022-09-21T14:28:42;94950.47;;;16.09;37.29
40205;BME280;26963;42.666;23.366;2022-09-21T14:31:44;94966.56;;;16.26;36.85
40205;BME280;26963;42.666;23.366;2022-09-21T14:34:21;94951.06;;;16.14;37.19
40205;BME280;26963;42.666;23.366;2022-09-21T14:36:49;94940.94;;;16.11;37.29
40205;BME280;26963;42.666;23.366;2022-09-21T14:39:29;94944.69;;;16.19;37.78
40205;BME280;26963;42.666;23.366;2022-09-21T14:42:19;94920.75;;;16.18;37.51
40205;BME280;26963;42.666;23.366;2022-09-21T14:44:48;94907.81;;;16.02;37.35
40205;BME280;26963;42.666;23.366;2022-09-21T14:50:19;94960.91;;;16.40;37.74
40205;BME280;26963;42.666;23.366;2022-09-21T15:02:15;94965.84;;;16.38;36.34
40205;BME280;26963;42.666;23.366;2022-09-21T15:07:41;94970.53;;;16.29;36.88
40205;BME280;26963;42.666;23.366;2022-09-21T15:16:40;94976.66;;;16.08;37.25
40205;BME280;26963;42.666;23.366;2022-09-21T15:21:49;94984.94;;;16.03;37.57
40205;BME280;26963;42.666;23.366;2022-09-21T15:24:19;94979.41;;;16.00;37.51
40205;BME280;26963;42.666;23.366;2022-09-21T15:26:49;94980.59;;;15.90;37.53
40205;BME280;26963;42.666;23.366;2022-09-21T15:29:28;94929.63;;;15.49;37.42
40205;BME280;26963;42.666;23.366;2022-09-21T15:31:56;94966.03;;;15.73;36.73
40205;BME280;26963;42.666;23.366;2022-09-21T15:34:34;94987.53;;;15.91;37.11
40205;BME280;26963;42.666;23.366;2022-09-21T15:37:15;94984.56;;;15.84;36.86
40205;BME280;26963;42.666;23.366;2022-09-21T15:39:41;94997.41;;;15.87;37.00
40205;BME280;26963;42.666;23.366;2022-09-21T15:44:34;95001.13;;;16.03;36.21
40205;BME280;26963;42.666;23.366;2022-09-21T15:47:02;94988.75;;;16.02;35.82
40205;BME280;26963;42.666;23.366;2022-09-21T15:49:28;94900.41;;;15.52;35.40
40205;BME280;26963;42.666;23.366;2022-09-21T15:52:00;94995.56;;;16.08;36.83
40205;BME280;26963;42.666;23.366;2022-09-21T15:54:42;94957.28;;;15.85;37.83
40205;BME280;26963;42.666;23.366;2022-09-21T15:57:41;95009.41;;;15.98;38.48
40205;BME280;26963;42.666;23.366;2022-09-21T16:03:16;95006.75;;;15.80;38.89
40205;BME280;26963;42.666;23.366;2022-09-21T16:05:59;94977.50;;;15.53;39.60
40205;BME280;26963;42.666;23.366;2022-09-21T16:08:41;94984.69;;;15.40;40.74
40205;BME280;26963;42.666;23.366;2022-09-21T16:11:17;94973.75;;;15.36;40.83
40205;BME280;26963;42.666;23.366;2022-09-21T16:13:46;95019.69;;;15.57;41.17
40205;BME280;26963;42.666;23.366;2022-09-21T16:20:04;95025.28;;;15.43;41.99
40205;BME280;26963;42.666;23.366;2022-09-21T16:22:43;95028.94;;;15.30;41.95
40205;BME280;26963;42.666;23.366;2022-09-21T16:25:33;95016.13;;;15.09;42.18
40205;BME280;26963;42.666;23.366;2022-09-21T16:30:50;95041.31;;;15.13;42.14
40205;BME280;26963;42.666;23.366;2022-09-21T16:38:43;95003.00;;;14.73;42.27
40205;BME280;26963;42.666;23.366;2022-09-21T16:41:09;95029.59;;;14.83;42.44
40205;BME280;26963;42.666;23.366;2022-09-21T16:43:37;95033.72;;;14.80;42.72
40205;BME280;26963;42.666;23.366;2022-09-21T16:46:08;95048.63;;;14.87;42.54
40205;BME280;26963;42.666;23.366;2022-09-21T16:48:34;95042.75;;;14.67;42.78
40205;BME280;26963;42.666;23.366;2022-09-21T16:51:02;95049.84;;;14.63;42.82